Time;durP1;ratioP1;P1;durP2;ratioP2;P2;SDS_P1;SDS_P2;PMS_P1;PMS_P2;Temp;Humidity;BMP_temperature;BMP_pressure;BME280_temperature;BME280_humidity;BME280_pressure;Samples;Min_cycle;Max_cycle;Signal;HPM_P1;HPM_P2
2021/01/28 00:01:25;;;;;;;5.20;1.38;;;9.40;99.90;;;;;;5076243;28;20201;-79
2021/01/28 00:03:50;;;;;;;1.55;1.45;;;9.40;99.90;;;;;;5076231;28;20174;-78
2021/01/28 00:06:16;;;;;;;0.60;0.60;;;9.40;99.90;;;;;;5075987;28;20205;-79
2021/01/28 00:08:46;;;;;;;1.73;1.63;;;9.50;99.90;;;;;;5075853;28;20210;-78
2021/01/28 00:11:12;;;;;;;0.90;0.90;;;9.70;99.90;;;;;;5058110;28;20522;-79
2021/01/28 00:13:38;;;;;;;1.25;1.17;;;9.50;99.90;;;;;;5058006;28;20169;-79
2021/01/28 00:16:04;;;;;;;2.28;1.77;;;9.50;99.90;;;;;;5076055;28;20650;-78
2021/01/28 00:18:29;;;;;;;1.15;1.15;;;9.30;99.90;;;;;;5075879;28;20661;-78
2021/01/28 00:20:55;;;;;;;1.08;1.08;;;9.30;99.90;;;;;;5075930;28;20236;-78
2021/01/28 00:23:21;;;;;;;0.50;0.50;;;9.10;99.90;;;;;;5075879;28;20182;-78
2021/01/28 00:25:47;;;;;;;0.90;0.90;;;9.20;99.90;;;;;;5075745;28;20183;-78
2021/01/28 00:28:15;;;;;;;0.70;0.70;;;9.20;99.90;;;;;;5075704;28;20198;-79
2021/01/28 00:30:46;;;;;;;1.10;0.90;;;9.30;99.90;;;;;;5057555;28;20167;-78
2021/01/28 00:33:15;;;;;;;0.20;0.20;;;9.10;99.90;;;;;;5057765;28;20174;-79
2021/01/28 00:35:44;;;;;;;3.58;1.65;;;9.20;99.90;;;;;;5075472;28;20650;-77
2021/01/28 00:38:12;;;;;;;0.95;0.93;;;9.30;99.90;;;;;;5075529;28;20162;-78
2021/01/28 00:40:38;;;;;;;0.60;0.60;;;9.40;99.90;;;;;;5075508;28;20171;-79
2021/01/28 00:43:04;;;;;;;0.60;0.60;;;9.30;99.90;;;;;;5075570;28;20618;-79
2021/01/28 00:45:31;;;;;;;0.50;0.50;;;9.00;99.90;;;;;;5075297;28;20186;-78
2021/01/28 00:47:57;;;;;;;0.70;0.70;;;9.10;99.90;;;;;;5057325;28;20217;-78
2021/01/28 00:50:26;;;;;;;0.70;0.70;;;9.30;99.90;;;;;;5075270;28;20170;-78
2021/01/28 00:52:52;;;;;;;0.75;0.75;;;9.30;99.90;;;;;;5075121;28;20693;-78
2021/01/28 00:55:18;;;;;;;0.38;0.38;;;9.40;99.90;;;;;;5075175;28;20204;-78
2021/01/28 00:57:45;;;;;;;0.75;0.75;;;9.30;99.90;;;;;;5075185;28;20269;-79
2021/01/28 01:00:16;;;;;;;1.02;0.75;;;9.20;99.90;;;;;;5075116;28;20163;-79
2021/01/28 01:02:43;;;;;;;1.42;1.40;;;9.20;99.90;;;;;;5075155;28;20171;-78
2021/01/28 01:05:14;;;;;;;0.30;0.30;;;9.20;99.90;;;;;;5074907;28;20634;-79
2021/01/28 01:07:40;;;;;;;1.60;1.35;;;9.10;99.90;;;;;;5074971;28;20677;-78
2021/01/28 01:10:09;;;;;;;0.70;0.70;;;9.30;99.90;;;;;;5074981;28;20154;-78
2021/01/28 01:12:34;;;;;;;0.80;0.80;;;9.40;99.90;;;;;;5056961;28;20162;-78
2021/01/28 01:15:00;;;;;;;4.10;1.42;;;9.40;99.90;;;;;;5074766;28;20668;-77
2021/01/28 01:17:26;;;;;;;1.33;1.27;;;9.60;99.90;;;;;;5074802;28;20166;-77
2021/01/28 01:19:51;;;;;;;0.68;0.68;;;9.40;99.90;;;;;;5074897;28;20498;-78
2021/01/28 01:22:17;;;;;;;0.60;0.60;;;9.30;99.90;;;;;;5074828;28;20295;-77
2021/01/28 01:24:42;;;;;;;1.10;1.10;;;9.10;99.90;;;;;;5056657;28;20202;-78
2021/01/28 01:27:08;;;;;;;0.63;0.63;;;9.20;99.90;;;;;;5074653;28;20201;-78
2021/01/28 01:29:34;;;;;;;0.98;0.98;;;9.30;99.90;;;;;;5074614;28;20163;-78
2021/01/28 01:32:00;;;;;;;1.10;1.10;;;9.20;99.90;;;;;;5074577;28;20167;-78
2021/01/28 01:34:25;;;;;;;0.52;0.52;;;9.50;99.90;;;;;;5074449;28;20253;-78
2021/01/28 01:36:51;;;;;;;0.65;0.65;;;9.40;99.90;;;;;;5074324;28;20228;-78
2021/01/28 01:39:16;;;;;;;0.60;0.60;;;9.20;99.90;;;;;;5056586;28;20170;-79
2021/01/28 01:41:42;;;;;;;1.55;0.88;;;9.00;99.90;;;;;;5055900;28;20689;-77
2021/01/28 01:44:08;;;;;;;0.93;0.93;;;8.90;99.90;;;;;;5074301;28;20167;-79
2021/01/28 01:46:35;;;;;;;0.80;0.80;;;9.00;99.90;;;;;;5074122;28;20205;-78
2021/01/28 01:49:08;;;;;;;1.13;1.02;;;9.00;99.90;;;;;;5074143;28;20637;-78
2021/01/28 01:51:40;;;;;;;0.90;0.90;;;9.00;99.90;;;;;;5074040;28;20272;-78
2021/01/28 01:54:16;;;;;;;1.13;1.13;;;9.10;99.90;;;;;;5074083;28;20166;-78
2021/01/28 01:56:48;;;;;;;0.82;0.70;;;9.20;99.90;;;;;;5056090;28;20578;-79
2021/01/28 01:59:36;;;;;;;0.88;0.85;;;9.10;99.90;;;;;;5074067;28;20162;-78
2021/01/28 02:02:15;;;;;;;0.52;0.52;;;9.10;99.90;;;;;;5073827;28;20173;-78
2021/01/28 02:04:43;;;;;;;1.05;1.05;;;9.20;99.90;;;;;;5073841;28;20249;-78
2021/01/28 02:07:18;;;;;;;0.38;0.38;;;9.20;99.90;;;;;;5073772;28;20202;-79
2021/01/28 02:09:44;;;;;;;0.40;0.40;;;8.90;99.90;;;;;;5073842;28;20161;-79
2021/01/28 02:12:10;;;;;;;1.98;0.60;;;8.90;99.90;;;;;;5055789;28;20167;-78
2021/01/28 02:14:36;;;;;;;1.60;0.77;;;8.90;99.90;;;;;;5073773;28;20162;-79
2021/01/28 02:17:05;;;;;;;2.05;1.15;;;9.20;99.90;;;;;;5055821;28;20174;-79
2021/01/28 02:19:46;;;;;;;1.00;1.00;;;9.40;99.90;;;;;;5073623;28;20151;-78
2021/01/28 02:22:12;;;;;;;0.20;0.20;;;9.20;99.90;;;;;;5055844;28;20240;-78
2021/01/28 02:24:50;;;;;;;0.70;0.70;;;9.30;99.90;;;;;;5073401;28;20162;-79
2021/01/28 02:27:17;;;;;;;0.40;0.40;;;9.20;99.90;;;;;;5055596;28;20213;-79
2021/01/28 02:29:44;;;;;;;1.25;0.47;;;9.20;99.90;;;;;;5073751;28;20186;-79
2021/01/28 02:32:10;;;;;;;0.38;0.38;;;9.20;99.90;;;;;;5073342;28;20489;-78
2021/01/28 02:34:35;;;;;;;1.40;1.35;;;9.20;99.90;;;;;;5073425;28;20241;-79
2021/01/28 02:37:15;;;;;;;0.80;0.80;;;9.20;99.90;;;;;;5073243;28;20191;-79
2021/01/28 02:39:41;;;;;;;0.50;0.50;;;9.20;99.90;;;;;;5073362;28;20154;-78
2021/01/28 02:42:18;;;;;;;0.80;0.80;;;9.20;99.90;;;;;;5073307;28;20642;-78
2021/01/28 02:44:44;;;;;;;1.55;1.27;;;9.20;99.90;;;;;;5073211;28;20174;-78
2021/01/28 02:47:11;;;;;;;0.40;0.40;;;9.30;99.90;;;;;;5073181;28;20221;-79
2021/01/28 02:49:36;;;;;;;0.98;0.82;;;9.20;99.90;;;;;;5073225;28;20153;-79
2021/01/28 02:52:02;;;;;;;0.75;0.73;;;9.30;99.90;;;;;;5054960;28;20226;-79
2021/01/28 02:54:28;;;;;;;0.85;0.85;;;9.40;99.90;;;;;;5072240;28;20252;-79
2021/01/28 02:56:53;;;;;;;0.60;0.60;;;9.40;99.90;;;;;;5072987;28;20191;-79
2021/01/28 02:59:19;;;;;;;7.75;1.40;;;9.50;99.90;;;;;;5073388;28;20166;-78
2021/01/28 03:01:45;;;;;;;0.77;0.77;;;9.60;99.90;;;;;;5055080;28;20508;-78
2021/01/28 03:04:10;;;;;;;0.38;0.38;;;9.60;99.90;;;;;;5072933;28;20178;-78
2021/01/28 03:06:36;;;;;;;0.52;0.52;;;9.50;99.90;;;;;;5073056;28;20693;-79
2021/01/28 03:09:05;;;;;;;0.75;0.75;;;9.60;99.90;;;;;;5073013;28;20606;-78
2021/01/28 03:11:31;;;;;;;1.20;0.98;;;9.60;99.90;;;;;;5072932;28;20565;-78
2021/01/28 03:13:56;;;;;;;1.10;1.00;;;9.80;99.90;;;;;;5072944;28;20174;-78
2021/01/28 03:16:22;;;;;;;0.88;0.82;;;9.70;99.90;;;;;;5072872;28;20720;-79
2021/01/28 03:18:48;;;;;;;0.82;0.60;;;9.70;99.90;;;;;;5073014;28;20162;-78
2021/01/28 03:21:13;;;;;;;1.02;0.85;;;9.50;99.90;;;;;;5072952;28;20178;-78
2021/01/28 03:23:39;;;;;;;0.65;0.65;;;9.50;99.90;;;;;;5072612;28;20193;-78
2021/01/28 03:26:05;;;;;;;1.38;1.38;;;9.40;99.90;;;;;;5072758;28;20205;-79
2021/01/28 03:28:30;;;;;;;0.93;0.93;;;9.60;99.90;;;;;;5054701;28;20280;-78
2021/01/28 03:30:56;;;;;;;0.82;0.82;;;9.60;99.90;;;;;;5072833;28;20253;-79
2021/01/28 03:33:22;;;;;;;0.73;0.73;;;9.40;99.90;;;;;;5073028;28;20636;-79
2021/01/28 03:35:49;;;;;;;0.57;0.57;;;9.50;99.90;;;;;;5072744;28;20190;-78
2021/01/28 03:38:16;;;;;;;0.50;0.50;;;9.70;99.90;;;;;;5072717;28;20641;-79
2021/01/28 03:40:42;;;;;;;0.88;0.88;;;9.90;99.90;;;;;;5072666;28;20506;-79
2021/01/28 03:43:08;;;;;;;1.80;1.65;;;9.90;99.90;;;;;;5072698;28;20158;-79
2021/01/28 03:45:33;;;;;;;1.95;0.77;;;9.70;99.90;;;;;;5072677;28;20182;-79
2021/01/28 03:48:00;;;;;;;0.38;0.38;;;9.70;99.90;;;;;;5072490;28;20206;-79
2021/01/28 03:50:30;;;;;;;0.57;0.57;;;9.80;99.90;;;;;;5072547;28;20159;-78
2021/01/28 03:52:55;;;;;;;0.73;0.73;;;9.80;99.90;;;;;;5054421;28;20322;-79
2021/01/28 03:55:21;;;;;;;0.20;0.20;;;9.70;99.90;;;;;;5054524;28;20639;-78
2021/01/28 03:57:49;;;;;;;0.80;0.80;;;9.70;99.90;;;;;;5072486;28;20528;-79
2021/01/28 04:00:19;;;;;;;0.30;0.30;;;9.40;99.90;;;;;;5072521;28;20169;-78
2021/01/28 04:02:44;;;;;;;2.00;0.57;;;9.40;99.90;;;;;;5072554;28;20591;-79
2021/01/28 04:05:12;;;;;;;1.05;0.85;;;9.30;99.90;;;;;;5073156;28;20261;-79
2021/01/28 04:07:38;;;;;;;30.98;1.13;;;9.20;99.90;;;;;;5058093;28;20198;-79
2021/01/28 04:10:07;;;;;;;0.20;0.20;;;9.20;99.90;;;;;;5076066;28;20155;-79
2021/01/28 04:12:32;;;;;;;0.30;0.30;;;9.50;99.90;;;;;;5076115;28;20174;-79
2021/01/28 04:14:58;;;;;;;0.52;0.52;;;9.70;99.90;;;;;;5075994;28;20186;-79
2021/01/28 04:17:24;;;;;;;1.13;1.05;;;9.80;99.90;;;;;;5075967;28;20197;-79
2021/01/28 04:19:49;;;;;;;1.00;0.98;;;10.00;99.90;;;;;;5076021;28;20158;-79
2021/01/28 04:22:15;;;;;;;1.58;0.63;;;10.00;99.90;;;;;;5076291;28;20174;-78
2021/01/28 04:24:40;;;;;;;1.05;0.95;;;9.90;99.90;;;;;;5075875;28;20178;-79
2021/01/28 04:27:06;;;;;;;1.02;0.95;;;9.90;99.90;;;;;;5075708;28;20202;-79
2021/01/28 04:29:32;;;;;;;1.27;1.10;;;9.90;99.90;;;;;;5075752;28;20159;-79
2021/01/28 04:31:57;;;;;;;0.52;0.50;;;9.90;99.90;;;;;;5057861;28;20182;-80
2021/01/28 04:34:23;;;;;;;0.20;0.20;;;9.80;99.90;;;;;;5075645;28;20166;-79
2021/01/28 04:36:48;;;;;;;0.50;0.50;;;9.80;99.90;;;;;;5075557;28;20197;-79
2021/01/28 04:39:15;;;;;;;0.70;0.70;;;9.70;99.90;;;;;;5075533;28;20154;-79
2021/01/28 04:41:42;;;;;;;0.80;0.80;;;9.70;99.90;;;;;;5057496;28;20162;-79
2021/01/28 04:44:10;;;;;;;0.60;0.60;;;9.80;99.90;;;;;;5075509;28;20253;-79
2021/01/28 04:46:41;;;;;;;4.28;1.17;;;9.80;99.90;;;;;;5075229;28;20657;-79
2021/01/28 04:49:11;;;;;;;0.30;0.30;;;9.80;99.90;;;;;;5057412;28;20159;-78
2021/01/28 04:51:37;;;;;;;0.20;0.20;;;9.90;99.90;;;;;;5075088;28;20214;-79
2021/01/28 04:54:32;;;;;;;0.73;0.73;;;9.80;99.90;;;;;;5075224;28;20521;-79
2021/01/28 04:57:04;;;;;;;0.45;0.45;;;9.80;99.90;;;;;;5073443;28;20235;-79
2021/01/28 04:59:39;;;;;;;1.13;1.08;;;10.00;99.90;;;;;;5075181;28;20158;-79
2021/01/28 05:02:07;;;;;;;0.55;0.55;;;9.90;99.90;;;;;;5075071;28;20640;-79
2021/01/28 05:04:47;;;;;;;1.35;0.82;;;9.90;99.90;;;;;;5075098;28;20174;-79
2021/01/28 05:07:27;;;;;;;0.65;0.65;;;9.90;99.90;;;;;;5056879;28;20669;-79
2021/01/28 05:10:10;;;;;;;0.52;0.52;;;9.80;99.90;;;;;;5074991;28;20622;-79
2021/01/28 05:12:37;;;;;;;0.43;0.43;;;9.80;99.90;;;;;;5075003;28;20159;-79
2021/01/28 05:15:25;;;;;;;0.60;0.60;;;9.80;99.90;;;;;;5074654;28;20654;-79
2021/01/28 05:18:17;;;;;;;0.52;0.52;;;9.90;99.90;;;;;;5056099;28;20528;-79
2021/01/28 05:20:44;;;;;;;0.98;0.98;;;9.70;99.90;;;;;;5074630;28;20166;-79
2021/01/28 05:23:22;;;;;;;0.20;0.20;;;9.60;99.90;;;;;;5074675;28;20177;-79
2021/01/28 05:25:47;;;;;;;0.28;0.28;;;9.40;99.90;;;;;;5074734;28;20679;-79
2021/01/28 05:28:30;;;;;;;1.17;1.17;;;9.40;99.90;;;;;;5074623;28;20210;-79
2021/01/28 05:30:57;;;;;;;0.17;0.17;;;9.40;99.90;;;;;;5074545;28;20177;-79
2021/01/28 05:33:29;;;;;;;0.90;0.90;;;9.60;99.90;;;;;;5074396;28;20237;-79
2021/01/28 05:36:22;;;;;;;0.45;0.45;;;9.50;99.90;;;;;;5074521;28;20190;-79
2021/01/28 05:38:53;;;;;;;0.32;0.32;;;9.30;99.90;;;;;;5072111;28;20589;-79
2021/01/28 05:41:43;;;;;;;0.15;0.15;;;9.30;99.90;;;;;;5074191;28;20246;-79
2021/01/28 05:44:14;;;;;;;0.60;0.60;;;9.30;99.90;;;;;;5074332;28;20162;-79
2021/01/28 05:46:39;;;;;;;1.90;0.60;;;9.40;99.90;;;;;;5073942;28;20183;-79
2021/01/28 05:49:20;;;;;;;0.20;0.20;;;9.40;99.90;;;;;;5056175;28;20174;-79
2021/01/28 05:51:46;;;;;;;0.73;0.60;;;9.50;99.90;;;;;;5073873;28;20222;-79
2021/01/28 05:54:21;;;;;;;0.50;0.47;;;9.50;99.90;;;;;;5074068;28;20177;-79
2021/01/28 05:56:49;;;;;;;0.43;0.43;;;9.40;99.90;;;;;;5073908;28;20186;-79
2021/01/28 05:59:22;;;;;;;1.40;0.95;;;9.30;99.90;;;;;;5056124;28;20213;-79
2021/01/28 06:02:25;;;;;;;0.35;0.35;;;9.20;99.90;;;;;;5073862;28;20217;-79
2021/01/28 06:05:17;;;;;;;0.50;0.50;;;9.40;99.90;;;;;;5073604;28;20166;-79
2021/01/28 06:08:01;;;;;;;0.20;0.20;;;9.30;99.90;;;;;;5073770;28;20217;-79
2021/01/28 06:10:42;;;;;;;0.20;0.20;;;9.40;99.90;;;;;;5073776;28;20571;-79
2021/01/28 06:13:41;;;;;;;0.50;0.50;;;9.50;99.90;;;;;;5073569;28;20653;-79
2021/01/28 06:16:33;;;;;;;0.40;0.40;;;9.50;99.90;;;;;;5073349;28;20749;-79
2021/01/28 06:19:31;;;;;;;0.28;0.25;;;9.40;99.90;;;;;;5050284;28;20518;-79
2021/01/28 06:22:18;;;;;;;0.45;0.40;;;9.30;99.90;;;;;;5049949;28;20217;-79
2021/01/28 06:24:48;;;;;;;0.40;0.40;;;9.30;99.90;;;;;;5081846;22;20230;-76
2021/01/28 06:27:40;;;;;;;0.17;0.17;;;9.30;99.90;;;;;;5053578;28;20199;-75
2021/01/28 06:30:22;;;;;;;1.00;0.88;;;9.30;99.90;;;;;;4999215;28;20179;-75
2021/01/28 06:33:05;;;;;;;0.90;0.47;;;9.40;99.90;;;;;;5053210;28;20155;-74
2021/01/28 06:35:45;;;;;;;0.20;0.20;;;9.60;99.90;;;;;;5053039;28;20519;-75
2021/01/28 06:38:35;;;;;;;0.17;0.17;;;9.60;99.90;;;;;;5053293;28;20690;-75
2021/01/28 06:41:08;;;;;;;0.40;0.40;;;9.50;99.90;;;;;;5035314;28;20362;-75
2021/01/28 06:44:23;;;;;;;0.22;0.22;;;9.50;99.90;;;;;;5052976;28;20179;-76
2021/01/28 06:47:13;;;;;;;0.10;0.10;;;9.40;99.90;;;;;;4971895;28;20243;-76
2021/01/28 06:49:56;;;;;;;0.20;0.20;;;9.50;99.90;;;;;;4972235;28;20177;-76
2021/01/28 06:52:47;;;;;;;0.17;0.17;;;9.50;99.90;;;;;;5032259;28;20187;-76
2021/01/28 06:55:21;;;;;;;0.20;0.20;;;9.40;99.90;;;;;;5053211;28;20199;-75
2021/01/28 06:58:03;;;;;;;0.20;0.20;;;9.50;99.90;;;;;;5052632;28;20660;-75
2021/01/28 07:00:35;;;;;;;0.20;0.20;;;9.60;99.90;;;;;;5052813;28;20178;-75
2021/01/28 07:03:30;;;;;;;0.20;0.20;;;9.60;99.90;;;;;;5052531;28;20231;-76
2021/01/28 07:06:05;;;;;;;0.20;0.20;;;9.70;99.90;;;;;;5052415;28;20191;-78
2021/01/28 07:08:30;;;;;;;0.45;0.43;;;9.80;99.90;;;;;;5052542;28;20688;-76
2021/01/28 07:10:56;;;;;;;0.30;0.30;;;9.80;99.90;;;;;;5052261;28;20175;-76
2021/01/28 07:13:25;;;;;;;0.28;0.28;;;9.80;99.90;;;;;;5052890;28;20222;-76
2021/01/28 07:16:07;;;;;;;0.30;0.30;;;9.90;99.90;;;;;;5052680;28;20178;-78
2021/01/28 07:18:38;;;;;;;0.35;0.35;;;9.90;99.90;;;;;;5034955;28;20562;-77
2021/01/28 07:21:06;;;;;;;0.35;0.35;;;9.80;99.90;;;;;;5052463;28;20635;-77
2021/01/28 07:23:36;;;;;;;0.20;0.20;;;9.70;99.90;;;;;;5034973;28;20159;-76
2021/01/28 07:26:11;;;;;;;0.10;0.10;;;9.60;99.90;;;;;;5052071;28;20246;-75
2021/01/28 07:28:38;;;;;;;0.20;0.20;;;9.70;99.90;;;;;;5052600;28;20604;-77
2021/01/28 07:31:06;;;;;;;0.30;0.30;;;9.70;99.90;;;;;;5052610;28;20582;-76
2021/01/28 07:33:33;;;;;;;0.40;0.28;;;9.70;99.90;;;;;;5052480;28;20162;-77
2021/01/28 07:36:22;;;;;;;0.32;0.32;;;9.90;99.90;;;;;;5051963;28;20187;-78
2021/01/28 07:38:52;;;;;;;0.20;0.20;;;10.00;99.90;;;;;;5038275;28;20259;-78
2021/01/28 07:41:48;;;;;;;0.20;0.20;;;9.70;99.90;;;;;;5053795;28;20295;-76
2021/01/28 07:44:35;;;;;;;1.35;0.63;;;9.70;99.90;;;;;;5050419;28;20236;-76
2021/01/28 07:47:03;;;;;;;0.30;0.30;;;9.70;99.90;;;;;;5055915;28;20213;-75
2021/01/28 07:49:33;;;;;;;0.57;0.57;;;9.80;99.90;;;;;;5056033;28;20155;-76
2021/01/28 07:52:02;;;;;;;0.20;0.20;;;9.80;99.90;;;;;;5056655;28;20568;-76
2021/01/28 07:54:27;;;;;;;0.38;0.30;;;9.90;99.90;;;;;;5056584;28;20179;-76
2021/01/28 07:56:59;;;;;;;0.30;0.30;;;9.90;99.90;;;;;;5056078;28;20190;-77
2021/01/28 07:59:35;;;;;;;0.22;0.22;;;9.90;99.90;;;;;;5056146;28;20159;-75
2021/01/28 08:02:22;;;;;;;0.20;0.20;;;10.00;99.90;;;;;;5056311;28;20530;-75
2021/01/28 08:05:01;;;;;;;0.10;0.10;;;10.00;99.90;;;;;;5056168;28;20250;-77
2021/01/28 08:08:02;;;;;;;0.90;0.75;;;10.00;99.90;;;;;;5056092;28;20230;-78
2021/01/28 08:10:36;;;;;;;0.82;0.82;;;10.00;99.90;;;;;;5055951;28;20167;-79
2021/01/28 08:13:06;;;;;;;0.35;0.35;;;10.20;99.90;;;;;;5055923;28;20151;-78
2021/01/28 08:15:39;;;;;;;0.10;0.10;;;10.20;99.90;;;;;;5055904;28;20207;-76
2021/01/28 08:18:25;;;;;;;0.20;0.20;;;10.30;99.90;;;;;;5055910;28;20182;-77
2021/01/28 08:21:11;;;;;;;0.30;0.30;;;10.30;99.90;;;;;;5053636;28;20183;-74
2021/01/28 08:23:39;;;;;;;0.20;0.20;;;10.30;99.90;;;;;;5054620;28;20151;-74
2021/01/28 08:26:11;;;;;;;0.40;0.40;;;10.20;99.90;;;;;;5053491;28;20231;-77
2021/01/28 08:28:40;;;;;;;0.25;0.25;;;10.30;99.90;;;;;;5055204;28;20206;-77
2021/01/28 08:31:15;;;;;;;0.35;0.35;;;10.30;99.90;;;;;;5055569;28;20156;-76
2021/01/28 08:33:44;;;;;;;0.20;0.20;;;10.40;99.90;;;;;;5055352;28;20163;-76
2021/01/28 08:36:22;;;;;;;0.20;0.20;;;10.50;99.90;;;;;;5053822;28;20274;-78
2021/01/28 08:38:47;;;;;;;0.55;0.47;;;10.50;99.90;;;;;;5037152;28;20709;-74
2021/01/28 08:41:17;;;;;;;0.40;0.40;;;10.60;99.90;;;;;;5054559;28;20254;-77
2021/01/28 08:43:44;;;;;;;0.35;0.35;;;10.70;99.90;;;;;;5055247;28;20160;-77
2021/01/28 08:46:13;;;;;;;0.52;0.50;;;10.60;99.90;;;;;;5054810;28;20199;-76
2021/01/28 08:48:40;;;;;;;0.20;0.20;;;10.60;99.90;;;;;;5036736;28;20237;-77
2021/01/28 08:51:15;;;;;;;2.38;1.00;;;10.70;99.90;;;;;;5048442;28;20707;-76
2021/01/28 08:53:45;;;;;;;0.30;0.30;;;10.70;99.90;;;;;;5034122;28;20574;-74
2021/01/28 08:56:20;;;;;;;0.40;0.40;;;10.70;99.90;;;;;;5034954;28;20244;-75
2021/01/28 08:58:46;;;;;;;0.30;0.30;;;10.80;99.90;;;;;;5035248;28;20159;-75
2021/01/28 09:01:13;;;;;;;0.20;0.20;;;10.80;99.90;;;;;;5034923;28;20164;-76
2021/01/28 09:04:07;;;;;;;0.28;0.28;;;11.00;99.90;;;;;;5034716;28;20886;-77
2021/01/28 09:06:44;;;;;;;0.10;0.10;;;11.10;99.90;;;;;;5035089;28;20242;-74
2021/01/28 09:09:31;;;;;;;0.20;0.20;;;11.10;99.90;;;;;;5034718;28;20234;-75
2021/01/28 09:12:22;;;;;;;0.20;0.20;;;11.20;99.90;;;;;;5034506;28;20175;-78
2021/01/28 09:14:48;;;;;;;0.22;0.22;;;11.20;99.90;;;;;;5034660;28;20257;-76
2021/01/28 09:17:31;;;;;;;1.55;0.82;;;11.40;99.90;;;;;;5034721;28;20171;-77
2021/01/28 09:20:01;;;;;;;0.40;0.35;;;11.40;99.90;;;;;;5034739;28;20162;-76
2021/01/28 09:22:29;;;;;;;0.20;0.20;;;11.30;99.90;;;;;;5048498;28;20179;-78
2021/01/28 09:24:55;;;;;;;0.55;0.55;;;11.30;99.90;;;;;;5053294;28;20227;-78
2021/01/28 09:27:21;;;;;;;0.50;0.35;;;11.20;99.90;;;;;;5054445;28;20378;-77
2021/01/28 09:29:51;;;;;;;0.32;0.30;;;11.20;99.90;;;;;;5036341;28;20166;-79
2021/01/28 09:32:17;;;;;;;0.40;0.40;;;11.30;99.90;;;;;;5054095;28;20182;-77
2021/01/28 09:34:42;;;;;;;0.38;0.38;;;11.30;99.90;;;;;;5051441;28;20175;-76
2021/01/28 09:37:16;;;;;;;0.98;0.40;;;11.30;99.90;;;;;;5051521;28;20571;-76
2021/01/28 09:39:48;;;;;;;0.85;0.80;;;11.30;99.90;;;;;;5052193;28;20152;-75
2021/01/28 09:42:28;;;;;;;0.30;0.30;;;11.40;99.90;;;;;;5051827;28;20631;-76
2021/01/28 09:44:55;;;;;;;1.00;0.77;;;11.40;99.90;;;;;;5051611;28;20174;-75
2021/01/28 09:47:28;;;;;;;0.30;0.30;;;11.40;99.90;;;;;;5052163;28;20256;-75
2021/01/28 09:50:03;;;;;;;0.20;0.20;;;11.60;99.90;;;;;;5053052;28;20198;-75
2021/01/28 09:52:43;;;;;;;0.20;0.20;;;11.60;99.90;;;;;;5017564;28;20540;-75
2021/01/28 09:55:15;;;;;;;0.20;0.20;;;11.60;99.90;;;;;;5033036;28;20282;-76
2021/01/28 09:57:41;;;;;;;0.47;0.43;;;11.50;99.90;;;;;;5032548;28;20251;-76
2021/01/28 10:00:10;;;;;;;0.32;0.32;;;11.50;99.90;;;;;;5033016;28;20251;-76
2021/01/28 10:02:37;;;;;;;0.30;0.30;;;11.50;99.90;;;;;;5014068;28;20178;-76
2021/01/28 10:05:04;;;;;;;0.20;0.20;;;11.50;99.90;;;;;;5040091;28;20240;-77
2021/01/28 10:07:30;;;;;;;0.70;0.70;;;11.40;99.90;;;;;;5051914;28;20214;-77
2021/01/28 10:09:56;;;;;;;0.47;0.45;;;11.50;99.90;;;;;;5034796;28;20530;-78
2021/01/28 10:12:25;;;;;;;0.30;0.30;;;11.60;99.90;;;;;;5051877;28;20171;-77
2021/01/28 10:14:51;;;;;;;0.20;0.20;;;11.60;99.90;;;;;;5051900;28;20167;-76
2021/01/28 10:17:16;;;;;;;1.10;0.43;;;11.60;99.90;;;;;;5051905;28;20228;-76
2021/01/28 10:19:43;;;;;;;0.10;0.10;;;11.50;99.90;;;;;;5052717;28;20159;-78
2021/01/28 10:22:11;;;;;;;1.25;0.70;;;11.40;99.90;;;;;;5037412;28;20168;-77
2021/01/28 10:24:37;;;;;;;0.30;0.30;;;11.40;99.90;;;;;;5032285;28;20303;-77
2021/01/28 10:27:03;;;;;;;0.52;0.52;;;11.40;99.90;;;;;;5032301;28;20247;-77
2021/01/28 10:29:29;;;;;;;0.80;0.80;;;11.40;99.90;;;;;;5032487;28;20209;-76
2021/01/28 10:31:54;;;;;;;0.65;0.38;;;11.50;99.90;;;;;;5032103;28;20191;-77
2021/01/28 10:34:20;;;;;;;0.40;0.40;;;11.50;99.90;;;;;;5032312;28;20180;-76
2021/01/28 10:36:46;;;;;;;0.20;0.20;;;11.60;99.90;;;;;;5051083;28;20559;-76
2021/01/28 10:39:12;;;;;;;0.35;0.35;;;11.60;99.90;;;;;;5052154;28;20492;-76
2021/01/28 10:41:37;;;;;;;0.30;0.30;;;11.70;99.90;;;;;;5052221;28;20166;-77
2021/01/28 10:44:03;;;;;;;3.03;0.90;;;11.60;99.90;;;;;;5051930;28;20639;-78
2021/01/28 10:46:28;;;;;;;0.73;0.73;;;11.60;99.90;;;;;;5051834;28;20207;-77
2021/01/28 10:48:54;;;;;;;0.50;0.50;;;11.60;99.90;;;;;;5051655;28;20210;-79
2021/01/28 10:51:20;;;;;;;0.10;0.10;;;11.60;99.90;;;;;;5043859;28;20171;-76
2021/01/28 10:53:46;;;;;;;0.30;0.30;;;11.70;99.90;;;;;;5038278;28;20639;-76
2021/01/28 10:56:12;;;;;;;0.30;0.30;;;11.70;99.90;;;;;;5051009;28;20191;-76
2021/01/28 10:58:37;;;;;;;0.32;0.32;;;11.70;99.90;;;;;;5051826;28;20665;-76
2021/01/28 11:01:03;;;;;;;0.88;0.80;;;11.60;99.90;;;;;;5051074;28;20193;-76
2021/01/28 11:03:29;;;;;;;0.50;0.50;;;11.70;99.90;;;;;;5051316;28;20178;-76
2021/01/28 11:05:55;;;;;;;0.50;0.50;;;11.70;99.90;;;;;;5035711;28;20218;-76
2021/01/28 11:08:20;;;;;;;1.10;0.52;;;11.70;99.90;;;;;;5031826;28;20203;-76
2021/01/28 11:10:46;;;;;;;0.20;0.20;;;11.80;99.90;;;;;;5031765;28;20156;-76
2021/01/28 11:13:12;;;;;;;0.70;0.70;;;11.80;99.90;;;;;;5040583;28;20527;-76
2021/01/28 11:15:38;;;;;;;1.70;0.98;;;11.90;99.90;;;;;;5050264;28;20190;-78
2021/01/28 11:18:06;;;;;;;0.25;0.25;;;11.90;99.90;;;;;;5051356;28;20163;-77
2021/01/28 11:20:32;;;;;;;0.38;0.38;;;12.00;99.90;;;;;;5045675;28;20509;-76
2021/01/28 11:23:01;;;;;;;0.30;0.30;;;12.00;99.90;;;;;;5037894;28;20175;-77
2021/01/28 11:25:27;;;;;;;0.30;0.30;;;12.00;99.90;;;;;;5051581;28;20621;-77
2021/01/28 11:27:54;;;;;;;0.20;0.20;;;11.90;99.90;;;;;;5051301;28;20203;-78
2021/01/28 11:30:23;;;;;;;0.25;0.25;;;11.90;99.90;;;;;;5052433;28;20195;-78
2021/01/28 11:32:49;;;;;;;0.98;0.75;;;11.90;99.90;;;;;;5052404;28;20514;-78
2021/01/28 11:35:16;;;;;;;0.22;0.22;;;12.00;99.90;;;;;;5051702;28;20179;-78
2021/01/28 11:37:45;;;;;;;1.02;0.50;;;12.00;99.90;;;;;;5050799;28;20216;-78
2021/01/28 11:40:17;;;;;;;0.30;0.30;;;11.90;99.90;;;;;;5051474;28;20563;-77
2021/01/28 11:42:42;;;;;;;0.22;0.22;;;11.90;99.90;;;;;;5051030;28;20217;-77
2021/01/28 11:45:09;;;;;;;0.17;0.17;;;12.00;99.90;;;;;;5051122;28;20542;-78
2021/01/28 11:47:35;;;;;;;0.30;0.30;;;12.20;99.90;;;;;;5051237;28;20187;-77
2021/01/28 11:50:00;;;;;;;0.45;0.45;;;12.30;99.90;;;;;;5051453;28;20166;-77
2021/01/28 11:52:26;;;;;;;0.95;0.73;;;12.30;99.90;;;;;;5051511;28;20178;-76
2021/01/28 11:54:51;;;;;;;0.65;0.63;;;12.30;99.90;;;;;;5052354;28;20171;-77
2021/01/28 11:57:17;;;;;;;0.30;0.30;;;12.10;99.90;;;;;;5052586;28;20191;-78
2021/01/28 11:59:42;;;;;;;0.47;0.47;;;12.20;99.90;;;;;;5050730;28;20171;-76
2021/01/28 12:02:08;;;;;;;0.20;0.20;;;12.30;99.90;;;;;;5051634;28;20179;-78
2021/01/28 12:04:33;;;;;;;8.88;0.52;;;12.30;99.90;;;;;;5052617;28;20567;-76
2021/01/28 12:06:59;;;;;;;1.40;0.57;;;12.20;99.90;;;;;;5052337;28;20191;-78
2021/01/28 12:09:25;;;;;;;0.28;0.28;;;12.20;99.90;;;;;;5052512;28;20163;-78
2021/01/28 12:11:50;;;;;;;0.63;0.63;;;12.10;99.90;;;;;;5052356;28;20615;-75
2021/01/28 12:14:16;;;;;;;1.00;0.90;;;12.20;99.90;;;;;;5052146;28;20665;-75
2021/01/28 12:16:42;;;;;;;0.20;0.20;;;12.10;99.90;;;;;;5052081;28;20179;-76
2021/01/28 12:19:10;;;;;;;0.47;0.47;;;12.10;99.90;;;;;;5052227;28;20640;-75
2021/01/28 12:21:37;;;;;;;0.30;0.30;;;12.10;99.90;;;;;;5034443;28;20528;-74
2021/01/28 12:24:02;;;;;;;0.35;0.35;;;12.20;99.90;;;;;;5051944;28;20271;-76
2021/01/28 12:28:53;;;;;;;1.30;1.20;;;12.20;99.90;;;;;;5055778;28;20203;-79
2021/01/28 12:31:19;;;;;;;1.35;0.63;;;12.30;99.90;;;;;;5055829;28;20174;-77
2021/01/28 12:33:44;;;;;;;0.30;0.30;;;12.30;99.90;;;;;;5055472;28;20156;-76
2021/01/28 12:36:11;;;;;;;0.73;0.73;;;12.30;99.90;;;;;;5056032;28;20183;-75
2021/01/28 12:38:37;;;;;;;0.22;0.22;;;12.40;99.90;;;;;;5055624;28;20242;-75
2021/01/28 12:41:04;;;;;;;0.30;0.30;;;12.40;99.90;;;;;;5055537;28;20171;-77
2021/01/28 12:43:29;;;;;;;0.10;0.10;;;12.40;99.90;;;;;;5055410;28;20156;-77
2021/01/28 12:45:55;;;;;;;0.55;0.55;;;12.50;99.90;;;;;;5037404;28;20210;-78
2021/01/28 12:48:20;;;;;;;0.45;0.45;;;12.50;99.90;;;;;;5055454;28;20198;-75
2021/01/28 12:50:46;;;;;;;0.45;0.45;;;12.50;99.90;;;;;;5055298;28;20213;-76
2021/01/28 12:53:12;;;;;;;0.95;0.60;;;12.50;99.90;;;;;;5052325;28;20166;-77
2021/01/28 12:55:38;;;;;;;0.68;0.68;;;12.50;99.90;;;;;;5055728;28;20187;-77
2021/01/28 12:58:04;;;;;;;1.00;1.00;;;12.50;99.90;;;;;;5055143;28;20199;-78
2021/01/28 13:00:29;;;;;;;2.72;0.57;;;12.60;99.90;;;;;;5055160;28;20159;-76
2021/01/28 13:02:55;;;;;;;0.80;0.50;;;12.60;99.90;;;;;;5055083;28;20220;-76
2021/01/28 13:05:22;;;;;;;0.30;0.30;;;12.60;99.90;;;;;;5037120;28;20638;-78
2021/01/28 13:07:48;;;;;;;0.20;0.20;;;12.60;99.90;;;;;;5055113;28;20191;-77
2021/01/28 13:10:15;;;;;;;0.80;0.80;;;12.60;99.90;;;;;;5055291;28;20186;-76
2021/01/28 13:12:41;;;;;;;0.38;0.38;;;12.60;99.90;;;;;;5054990;28;20498;-75